createdAt,value
2018-07-23T00:02:11.347Z,8.53
2018-07-23T00:04:40.007Z,11.83
2018-07-23T00:07:08.619Z,8.07
2018-07-23T00:09:37.201Z,9.57
2018-07-23T00:12:12.269Z,16.80
2018-07-23T00:14:40.977Z,9.00
2018-07-23T00:17:09.760Z,10.57
2018-07-23T00:19:38.436Z,11.90
2018-07-23T00:22:07.571Z,9.70
2018-07-23T00:24:36.526Z,11.40
2018-07-23T00:27:05.122Z,12.30
2018-07-23T00:29:33.431Z,11.40
2018-07-23T00:32:02.074Z,10.67
2018-07-23T00:34:30.907Z,11.77
2018-07-23T00:36:59.547Z,11.67
2018-07-23T00:39:28.299Z,14.47
2018-07-23T00:41:56.934Z,15.90
2018-07-23T00:44:25.691Z,13.07
2018-07-23T00:46:54.404Z,12.37
2018-07-23T00:49:23.081Z,12.90
2018-07-23T00:51:51.842Z,12.00
2018-07-23T00:54:20.392Z,13.83
2018-07-23T00:56:50.235Z,12.57
2018-07-23T00:59:18.817Z,14.33
2018-07-23T01:01:47.466Z,18.00
2018-07-23T01:04:16.054Z,12.70
2018-07-23T01:06:44.664Z,14.20
2018-07-23T01:09:13.244Z,12.50
2018-07-23T01:11:41.961Z,13.50
2018-07-23T01:14:10.537Z,13.33
2018-07-23T01:16:39.158Z,14.70
2018-07-23T01:19:07.847Z,14.70
2018-07-23T01:21:36.648Z,12.37
2018-07-23T01:24:05.239Z,11.23
2018-07-23T01:26:33.934Z,13.77
2018-07-23T01:29:02.560Z,13.60
2018-07-23T01:31:31.187Z,14.53
2018-07-23T01:33:59.819Z,16.70
2018-07-23T01:36:28.407Z,16.93
2018-07-23T01:38:57.070Z,17.50
2018-07-23T01:41:25.695Z,15.83
2018-07-23T01:43:54.301Z,18.33
2018-07-23T01:46:23.006Z,15.80
2018-07-23T01:48:51.712Z,20.43
2018-07-23T01:51:20.312Z,17.83
2018-07-23T01:53:48.863Z,16.70
2018-07-23T01:56:17.543Z,18.80
2018-07-23T01:58:46.216Z,17.07
2018-07-23T02:01:14.890Z,16.80
2018-07-23T02:03:43.525Z,17.00
2018-07-23T02:06:12.280Z,19.40
2018-07-23T02:08:40.936Z,18.30
2018-07-23T02:11:09.584Z,19.40
2018-07-23T02:13:38.168Z,16.20
2018-07-23T02:16:06.743Z,17.43
2018-07-23T02:18:35.363Z,18.17
2018-07-23T02:21:03.954Z,16.97
2018-07-23T02:23:32.552Z,20.33
2018-07-23T02:26:01.182Z,23.10
2018-07-23T02:28:29.819Z,17.07
2018-07-23T02:30:58.476Z,17.03
2018-07-23T02:33:27.052Z,17.43
2018-07-23T02:35:55.726Z,18.93
2018-07-23T02:38:24.303Z,23.83
2018-07-23T02:40:52.964Z,18.00
2018-07-23T02:43:21.561Z,17.43
2018-07-23T02:45:50.198Z,16.67
2018-07-23T02:48:18.864Z,17.70
2018-07-23T02:50:47.540Z,19.00
2018-07-23T02:53:16.203Z,21.33
2018-07-23T02:55:44.811Z,18.33
2018-07-23T02:58:13.518Z,19.87
2018-07-23T03:00:42.182Z,23.17
2018-07-23T03:03:11.057Z,21.70
2018-07-23T03:05:39.772Z,25.27
2018-07-23T03:08:08.408Z,25.30
2018-07-23T03:10:36.966Z,26.37
2018-07-23T03:13:06.051Z,24.40
2018-07-23T03:15:34.675Z,25.33
2018-07-23T03:18:03.453Z,26.00
2018-07-23T03:20:32.325Z,24.03
2018-07-23T03:23:00.981Z,23.83
2018-07-23T03:25:29.920Z,24.47
2018-07-23T03:27:58.814Z,24.73
2018-07-23T03:30:27.747Z,20.57
2018-07-23T03:32:56.342Z,24.20
2018-07-23T03:35:24.896Z,24.87
2018-07-23T03:37:53.633Z,21.23
2018-07-23T03:40:22.392Z,22.27
2018-07-23T03:42:51.064Z,19.70
2018-07-23T03:45:19.780Z,23.07
2018-07-23T03:47:48.415Z,23.90
2018-07-23T03:50:17.051Z,21.97
2018-07-23T03:52:45.806Z,20.90
2018-07-23T03:55:14.441Z,20.17
2018-07-23T03:57:43.131Z,20.67
2018-07-23T04:00:11.852Z,18.47
2018-07-23T04:02:40.568Z,19.33
2018-07-23T04:05:09.262Z,20.73
2018-07-23T04:07:37.976Z,21.90
2018-07-23T04:10:06.834Z,22.57
2018-07-23T04:12:35.449Z,21.57
2018-07-23T04:15:04.134Z,20.47
2018-07-23T04:17:32.793Z,21.13
2018-07-23T04:20:01.354Z,19.87
2018-07-23T04:22:30.169Z,22.70
2018-07-23T04:24:58.786Z,19.97
2018-07-23T04:27:27.068Z,24.33
2018-07-23T04:29:55.682Z,19.57
2018-07-23T04:32:24.292Z,20.33
2018-07-23T04:34:53.427Z,21.73
2018-07-23T04:37:22.042Z,23.63
2018-07-23T04:39:50.680Z,21.20
2018-07-23T04:42:19.414Z,22.77
2018-07-23T04:44:48.044Z,23.10
2018-07-23T04:47:16.691Z,21.50
2018-07-23T04:49:45.363Z,24.93
2018-07-23T04:52:14.035Z,40.90
2018-07-23T04:54:42.652Z,22.47
2018-07-23T04:57:11.486Z,24.93
2018-07-23T04:59:40.131Z,31.43
2018-07-23T05:02:09.144Z,28.70
2018-07-23T05:04:37.880Z,27.57
2018-07-23T05:07:06.426Z,27.63
2018-07-23T05:09:41.770Z,33.33
2018-07-23T05:12:10.393Z,31.60
2018-07-23T05:14:38.992Z,35.47
2018-07-23T05:17:07.591Z,29.40
2018-07-23T05:19:36.184Z,39.17
2018-07-23T05:22:04.818Z,35.03
2018-07-23T05:24:33.552Z,34.13
2018-07-23T05:27:02.235Z,47.97
2018-07-23T05:29:30.845Z,30.90
2018-07-23T05:31:59.545Z,32.23
2018-07-23T05:34:28.144Z,26.50
2018-07-23T05:36:56.859Z,28.07
2018-07-23T05:39:25.546Z,26.03
2018-07-23T05:41:54.052Z,31.73
2018-07-23T05:44:22.857Z,19.23
2018-07-23T05:46:51.473Z,30.47
2018-07-23T05:49:20.229Z,23.87
2018-07-23T05:51:48.878Z,23.03
2018-07-23T05:54:17.459Z,21.67
2018-07-23T05:56:46.453Z,21.83
2018-07-23T05:59:15.109Z,21.97
2018-07-23T06:01:43.786Z,26.00
2018-07-23T06:04:12.420Z,24.40
2018-07-23T06:06:41.003Z,20.77
2018-07-23T06:09:10.582Z,23.00
2018-07-23T06:11:39.180Z,20.20
2018-07-23T06:14:07.941Z,18.27
2018-07-23T06:16:36.558Z,18.47
2018-07-23T06:19:05.131Z,17.53
2018-07-23T06:21:33.916Z,15.80
2018-07-23T06:24:02.564Z,15.10
2018-07-23T06:26:31.213Z,14.27
2018-07-23T06:28:59.729Z,13.50
2018-07-23T06:31:28.301Z,13.13
2018-07-23T06:33:56.894Z,12.07
2018-07-23T06:36:25.709Z,10.63
2018-07-23T06:38:54.476Z,9.70
2018-07-23T06:41:23.031Z,9.55
2018-07-23T06:43:51.794Z,10.57
2018-07-23T06:46:20.714Z,11.27
2018-07-23T06:48:49.418Z,12.40
2018-07-23T06:51:18.194Z,13.30
2018-07-23T06:53:46.964Z,14.73
2018-07-23T06:56:15.666Z,15.40
2018-07-23T06:58:44.300Z,18.37
2018-07-23T07:01:12.920Z,17.10
2018-07-23T07:03:41.607Z,15.53
2018-07-23T07:06:10.265Z,15.77
2018-07-23T07:08:39.267Z,16.80
2018-07-23T07:11:07.877Z,15.67
2018-07-23T07:13:36.481Z,19.73
2018-07-23T07:16:05.068Z,15.97
2018-07-23T07:18:33.589Z,17.07
2018-07-23T07:21:02.179Z,14.60
2018-07-23T07:23:30.662Z,15.07
2018-07-23T07:25:59.389Z,17.93
2018-07-23T07:28:28.085Z,17.77
2018-07-23T07:30:56.750Z,15.30
2018-07-23T07:33:25.498Z,16.47
2018-07-23T07:35:54.150Z,15.93
2018-07-23T07:38:23.272Z,16.70
2018-07-23T07:40:51.963Z,15.93
2018-07-23T07:43:20.957Z,17.13
2018-07-23T07:45:49.759Z,14.47
2018-07-23T07:48:18.408Z,17.23
2018-07-23T07:50:47.243Z,14.03
2018-07-23T07:53:16.100Z,17.20
2018-07-23T07:55:44.878Z,17.33
2018-07-23T07:58:13.498Z,16.67
2018-07-23T08:00:42.106Z,15.73
2018-07-23T08:03:10.802Z,14.67
2018-07-23T08:05:39.597Z,16.50
2018-07-23T08:08:08.313Z,16.27
2018-07-23T08:10:37.102Z,15.17
2018-07-23T08:13:05.844Z,13.20
2018-07-23T08:15:34.563Z,14.33
2018-07-23T08:18:03.436Z,13.40
2018-07-23T08:20:32.480Z,12.47
2018-07-23T08:23:01.625Z,12.63
2018-07-23T08:25:30.402Z,11.43
2018-07-23T08:27:59.101Z,12.60
2018-07-23T08:30:27.870Z,11.23
2018-07-23T08:32:56.417Z,10.27
2018-07-23T08:35:25.129Z,11.23
2018-07-23T08:37:53.755Z,8.70
2018-07-23T08:40:22.093Z,9.60
2018-07-23T08:42:50.784Z,7.80
2018-07-23T08:45:19.485Z,7.13
2018-07-23T08:47:48.300Z,8.93
2018-07-23T08:50:17.876Z,8.17
2018-07-23T08:52:46.417Z,7.97
2018-07-23T08:55:15.012Z,6.85
2018-07-23T08:57:43.662Z,6.42
2018-07-23T09:00:12.357Z,7.78
2018-07-23T09:02:40.993Z,7.75
2018-07-23T09:05:09.691Z,3.55
2018-07-23T09:07:38.464Z,5.03
2018-07-23T09:10:07.714Z,4.78
2018-07-23T09:12:36.500Z,5.90
2018-07-23T09:15:05.792Z,6.12
2018-07-23T09:17:34.728Z,5.50
2018-07-23T09:20:04.781Z,5.67
2018-07-23T09:22:34.650Z,5.97
2018-07-23T09:25:03.472Z,5.70
2018-07-23T09:27:33.147Z,5.53
2018-07-23T09:30:02.372Z,8.95
2018-07-23T09:32:30.995Z,3.85
2018-07-23T09:35:00.541Z,4.25
2018-07-23T09:37:29.651Z,4.40
2018-07-23T09:39:58.513Z,4.28
2018-07-23T09:42:27.039Z,4.67
2018-07-23T09:44:55.696Z,5.83
2018-07-23T09:47:26.348Z,7.22
2018-07-23T09:49:55.007Z,7.47
2018-07-23T09:52:23.682Z,7.35
2018-07-23T09:54:52.380Z,10.75
2018-07-23T09:57:20.993Z,9.80
2018-07-23T09:59:49.629Z,7.17
2018-07-23T10:02:17.834Z,8.50
2018-07-23T10:04:46.480Z,9.53
2018-07-23T10:07:15.697Z,9.40
2018-07-23T10:09:44.399Z,11.03
2018-07-23T10:12:13.286Z,11.63
2018-07-23T10:14:41.995Z,9.83
2018-07-23T10:17:10.657Z,9.23
2018-07-23T10:19:39.325Z,10.40
2018-07-23T10:22:09.103Z,31.33
2018-07-23T10:24:37.796Z,8.20
2018-07-23T10:27:06.729Z,9.60
2018-07-23T10:29:35.368Z,9.47
2018-07-23T10:32:04.178Z,11.20
2018-07-23T10:34:32.784Z,10.10
2018-07-23T10:37:01.862Z,9.23
2018-07-23T10:39:30.616Z,16.70
2018-07-23T10:41:59.345Z,12.40
2018-07-23T10:44:28.007Z,9.10
2018-07-23T10:46:56.582Z,10.93
2018-07-23T10:49:25.338Z,11.50
2018-07-23T10:51:54.342Z,8.67
2018-07-23T10:54:23.268Z,8.23
2018-07-23T10:56:52.022Z,15.43
2018-07-23T10:59:20.760Z,11.60
2018-07-23T11:01:49.400Z,25.97
2018-07-23T11:04:18.239Z,7.93
2018-07-23T11:06:46.779Z,11.70
2018-07-23T11:09:16.222Z,7.37
2018-07-23T11:11:44.770Z,8.10
2018-07-23T11:14:13.361Z,8.80
2018-07-23T11:16:42.009Z,11.37
2018-07-23T11:19:10.582Z,9.80
2018-07-23T11:21:39.055Z,7.97
2018-07-23T11:24:07.655Z,9.80
2018-07-23T11:26:36.346Z,8.17
2018-07-23T11:29:04.860Z,6.20
2018-07-23T11:31:33.313Z,7.57
2018-07-23T11:34:01.848Z,10.30
2018-07-23T11:36:30.516Z,9.47
2018-07-23T11:38:59.136Z,9.23
2018-07-23T11:41:27.858Z,9.47
2018-07-23T11:43:56.459Z,10.70
2018-07-23T11:46:25.314Z,7.70
2018-07-23T11:48:53.744Z,8.70
2018-07-23T11:51:22.390Z,9.27
2018-07-23T11:53:51.730Z,8.20
2018-07-23T11:56:21.140Z,7.30
2018-07-23T11:58:51.792Z,7.60
2018-07-23T12:01:20.528Z,7.70
2018-07-23T12:03:49.084Z,7.03
2018-07-23T12:06:17.740Z,9.03
2018-07-23T12:08:46.443Z,6.00
2018-07-23T12:11:14.926Z,6.43
2018-07-23T12:13:43.507Z,6.70
2018-07-23T12:16:12.017Z,7.63
2018-07-23T12:18:40.704Z,7.33
2018-07-23T12:21:09.453Z,8.03
2018-07-23T12:23:38.068Z,6.60
2018-07-23T12:26:07.277Z,7.30
2018-07-23T12:28:35.866Z,7.27
2018-07-23T12:31:04.343Z,6.83
2018-07-23T12:33:32.911Z,6.93
2018-07-23T12:36:01.447Z,8.00
2018-07-23T12:38:30.024Z,6.27
2018-07-23T12:40:58.579Z,8.17
2018-07-23T12:43:27.112Z,7.53
2018-07-23T12:45:56.477Z,7.77
2018-07-23T12:48:25.096Z,7.93
2018-07-23T12:50:53.681Z,7.03
2018-07-23T12:53:22.290Z,11.73
2018-07-23T12:55:50.795Z,7.20
2018-07-23T12:58:19.279Z,6.70
2018-07-23T13:00:47.869Z,6.60
2018-07-23T13:03:16.411Z,7.57
2018-07-23T13:05:44.699Z,7.67
2018-07-23T13:08:13.331Z,15.57
2018-07-23T13:10:41.992Z,6.57
2018-07-23T13:13:10.201Z,9.20
2018-07-23T13:15:38.816Z,8.67
2018-07-23T13:18:07.633Z,7.47
2018-07-23T13:20:36.289Z,8.63
2018-07-23T13:23:04.968Z,7.07
2018-07-23T13:25:33.608Z,6.97
2018-07-23T13:28:02.366Z,7.13
2018-07-23T13:30:31.018Z,6.87
2018-07-23T13:32:59.544Z,7.20
2018-07-23T13:35:28.097Z,7.20
2018-07-23T13:37:56.872Z,5.80
2018-07-23T13:40:25.550Z,7.13
2018-07-23T13:42:54.040Z,6.33
2018-07-23T13:45:22.875Z,7.47
2018-07-23T13:47:51.727Z,7.13
2018-07-23T13:50:21.356Z,7.10
2018-07-23T13:52:49.930Z,5.80
2018-07-23T13:55:18.381Z,6.43
2018-07-23T13:57:48.462Z,5.70
2018-07-23T14:00:17.063Z,7.70
2018-07-23T14:02:45.561Z,10.70
2018-07-23T14:05:14.150Z,15.97
2018-07-23T14:07:43.005Z,6.43
2018-07-23T14:10:11.593Z,5.63
2018-07-23T14:12:40.197Z,5.97
2018-07-23T14:15:09.499Z,10.47
2018-07-23T14:17:37.716Z,6.70
2018-07-23T14:20:06.452Z,6.17
2018-07-23T14:22:35.369Z,5.80
2018-07-23T14:25:03.877Z,7.30
2018-07-23T14:27:32.229Z,5.43
2018-07-23T14:30:01.979Z,5.80
2018-07-23T14:32:32.198Z,6.13
2018-07-23T14:35:00.820Z,6.20
2018-07-23T14:37:30.348Z,6.63
2018-07-23T14:39:59.012Z,6.07
2018-07-23T14:42:28.044Z,6.63
2018-07-23T14:44:56.767Z,7.00
2018-07-23T14:47:25.272Z,7.13
2018-07-23T14:52:29.701Z,6.80
2018-07-23T14:55:00.204Z,6.47
2018-07-23T14:57:28.896Z,6.87
2018-07-23T14:59:57.588Z,7.60
2018-07-23T15:02:26.348Z,8.73
2018-07-23T15:04:54.559Z,6.57
2018-07-23T15:07:23.179Z,7.03
2018-07-23T15:09:51.839Z,7.27
2018-07-23T15:12:20.420Z,8.70
2018-07-23T15:14:49.026Z,6.33
2018-07-23T15:17:17.261Z,7.10
2018-07-23T15:19:45.858Z,10.30
2018-07-23T15:22:14.414Z,8.70
2018-07-23T15:24:43.028Z,6.33
2018-07-23T15:27:11.643Z,5.43
2018-07-23T15:29:40.353Z,10.20
2018-07-23T15:32:08.979Z,6.53
2018-07-23T15:34:37.614Z,12.00
2018-07-23T15:37:06.252Z,7.10
2018-07-23T15:39:34.964Z,6.77
2018-07-23T15:42:03.840Z,5.37
2018-07-23T15:44:32.791Z,6.53
2018-07-23T15:47:01.262Z,6.50
2018-07-23T15:49:29.987Z,5.67
2018-07-23T15:51:58.439Z,7.40
2018-07-23T15:54:26.915Z,7.60
2018-07-23T15:56:55.425Z,6.93
2018-07-23T15:59:24.057Z,5.90
2018-07-23T16:01:52.884Z,8.40
2018-07-23T16:04:21.439Z,8.23
2018-07-23T16:06:50.000Z,7.37
2018-07-23T16:09:18.911Z,8.17
2018-07-23T16:11:47.649Z,7.10
2018-07-23T16:14:16.422Z,6.80
2018-07-23T16:16:45.439Z,7.03
2018-07-23T16:19:14.234Z,7.30
2018-07-23T16:21:43.121Z,10.73
2018-07-23T16:24:11.733Z,7.80
2018-07-23T16:26:40.564Z,7.17
2018-07-23T16:29:09.280Z,7.60
2018-07-23T16:31:37.821Z,6.33
2018-07-23T16:34:06.447Z,6.27
2018-07-23T16:36:34.948Z,6.40
2018-07-23T16:39:04.538Z,7.20
2018-07-23T16:41:33.240Z,7.70
2018-07-23T16:44:01.930Z,6.73
2018-07-23T16:46:30.474Z,5.87
2018-07-23T16:48:58.880Z,6.37
2018-07-23T16:51:27.485Z,6.33
2018-07-23T16:53:56.329Z,8.23
2018-07-23T16:56:25.227Z,6.20
2018-07-23T16:58:53.777Z,8.57
2018-07-23T17:01:22.745Z,7.87
2018-07-23T17:03:51.355Z,10.40
2018-07-23T17:06:20.053Z,8.93
2018-07-23T17:08:48.658Z,7.00
2018-07-23T17:11:17.020Z,6.90
2018-07-23T17:13:45.564Z,7.00
2018-07-23T17:16:14.612Z,7.33
2018-07-23T17:18:43.186Z,6.80
2018-07-23T17:21:11.870Z,7.73
2018-07-23T17:23:40.541Z,8.20
2018-07-23T17:26:09.233Z,7.17
2018-07-23T17:28:37.870Z,9.90
2018-07-23T17:31:06.926Z,7.67
2018-07-23T17:33:35.583Z,6.63
2018-07-23T17:36:04.476Z,7.60
2018-07-23T17:38:33.310Z,8.63
2018-07-23T17:41:01.987Z,9.67
2018-07-23T17:43:30.723Z,8.10
2018-07-23T17:45:59.488Z,10.53
2018-07-23T17:48:28.308Z,7.90
2018-07-23T17:50:56.977Z,5.77
2018-07-23T17:53:26.165Z,6.70
2018-07-23T17:55:54.876Z,6.63
2018-07-23T17:58:25.807Z,7.10
2018-07-23T18:00:56.612Z,7.00
2018-07-23T18:03:25.498Z,6.90
2018-07-23T18:05:54.148Z,6.30
2018-07-23T18:08:25.126Z,7.27
2018-07-23T18:10:53.794Z,7.00
2018-07-23T18:13:22.350Z,7.20
2018-07-23T18:15:51.098Z,8.13
2018-07-23T18:18:19.520Z,5.70
2018-07-23T18:20:48.616Z,10.00
2018-07-23T18:23:17.333Z,8.07
2018-07-23T18:25:46.222Z,10.57
2018-07-23T18:28:14.803Z,6.50
2018-07-23T18:30:43.479Z,8.30
2018-07-23T18:33:12.336Z,6.53
2018-07-23T18:35:40.931Z,9.17
2018-07-23T18:38:09.727Z,6.07
2018-07-23T18:40:38.402Z,6.80
2018-07-23T18:43:07.097Z,6.10
2018-07-23T18:45:35.843Z,6.97
2018-07-23T18:48:14.491Z,6.03
2018-07-23T18:50:43.223Z,6.33
2018-07-23T18:53:20.939Z,5.70
2018-07-23T18:55:49.694Z,6.60
2018-07-23T18:58:18.273Z,9.13
2018-07-23T19:00:46.965Z,7.63
2018-07-23T19:03:15.590Z,7.10
2018-07-23T19:05:45.376Z,6.27
2018-07-23T19:08:13.981Z,6.13
2018-07-23T19:10:42.648Z,6.93
2018-07-23T19:13:11.239Z,6.47
2018-07-23T19:15:39.779Z,7.00
2018-07-23T19:18:08.397Z,7.53
2018-07-23T19:20:37.030Z,8.67
2018-07-23T19:23:05.771Z,6.67
2018-07-23T19:25:34.396Z,8.97
2018-07-23T19:28:03.057Z,7.27
2018-07-23T19:30:31.693Z,9.53
2018-07-23T19:33:00.306Z,8.00
2018-07-23T19:35:29.017Z,6.77
2018-07-23T19:37:57.642Z,8.20
2018-07-23T19:40:26.155Z,6.67
2018-07-23T19:42:54.851Z,9.90
2018-07-23T19:45:23.526Z,8.37
2018-07-23T19:47:52.312Z,10.43
2018-07-23T19:50:21.057Z,7.63
2018-07-23T19:52:49.811Z,15.30
2018-07-23T19:55:18.702Z,7.90
2018-07-23T19:57:47.430Z,12.87
2018-07-23T20:00:16.012Z,8.07
2018-07-23T20:02:44.715Z,8.10
2018-07-23T20:05:13.559Z,8.50
2018-07-23T20:10:24.021Z,10.17
2018-07-23T20:12:52.613Z,10.87
2018-07-23T20:15:21.212Z,13.00
2018-07-23T20:17:50.207Z,8.67
2018-07-23T20:20:18.768Z,8.57
2018-07-23T20:22:47.388Z,8.90
2018-07-23T20:25:16.386Z,10.00
2018-07-23T20:27:45.051Z,8.03
2018-07-23T20:30:13.767Z,8.20
2018-07-23T20:32:42.401Z,7.83
2018-07-23T20:35:11.092Z,8.27
2018-07-23T20:37:39.757Z,9.10
2018-07-23T20:40:08.354Z,15.93
2018-07-23T20:42:36.964Z,7.17
2018-07-23T20:45:05.680Z,12.43
2018-07-23T20:47:34.356Z,11.80
2018-07-23T20:50:02.937Z,11.60
2018-07-23T20:52:31.648Z,9.60
2018-07-23T20:55:00.241Z,8.80
2018-07-23T20:57:28.820Z,11.80
2018-07-23T20:59:57.575Z,9.50
2018-07-23T21:02:26.269Z,10.63
2018-07-23T21:04:54.966Z,9.57
2018-07-23T21:07:23.612Z,10.87
2018-07-23T21:09:52.238Z,9.60
2018-07-23T21:12:20.953Z,11.00
2018-07-23T21:14:49.551Z,13.47
2018-07-23T21:17:18.225Z,10.53
2018-07-23T21:19:47.014Z,12.20
2018-07-23T21:22:15.662Z,10.17
2018-07-23T21:24:44.232Z,12.87
2018-07-23T21:27:12.851Z,11.43
2018-07-23T21:29:41.863Z,9.03
2018-07-23T21:32:10.551Z,10.77
2018-07-23T21:34:39.114Z,11.83
2018-07-23T21:37:07.691Z,11.30
2018-07-23T21:39:36.331Z,11.33
2018-07-23T21:42:04.890Z,14.23
2018-07-23T21:44:33.486Z,10.00
2018-07-23T21:47:02.112Z,11.17
2018-07-23T21:49:30.689Z,11.23
2018-07-23T21:52:01.100Z,10.63
2018-07-23T21:54:30.061Z,10.17
2018-07-23T21:56:58.635Z,10.80
2018-07-23T21:59:27.221Z,13.07
2018-07-23T22:01:55.884Z,11.33
2018-07-23T22:04:24.422Z,10.50
2018-07-23T22:06:52.966Z,11.53
2018-07-23T22:09:21.595Z,11.30
2018-07-23T22:11:50.150Z,10.93
2018-07-23T22:14:18.719Z,10.60
2018-07-23T22:16:48.946Z,10.93
2018-07-23T22:19:17.495Z,10.50
2018-07-23T22:21:46.032Z,10.70
2018-07-23T22:24:14.641Z,11.60
2018-07-23T22:26:43.213Z,11.73
2018-07-23T22:29:11.838Z,10.47
2018-07-23T22:31:40.380Z,11.00
2018-07-23T22:34:08.929Z,10.67
2018-07-23T22:36:37.458Z,11.17
2018-07-23T22:39:08.781Z,15.83
2018-07-23T22:41:37.793Z,14.50
2018-07-23T22:44:06.375Z,12.30
2018-07-23T22:46:35.061Z,15.63
2018-07-23T22:49:03.609Z,11.10
2018-07-23T22:51:32.366Z,11.70
2018-07-23T22:54:01.023Z,12.70
2018-07-23T22:56:29.635Z,11.93
2018-07-23T22:58:58.215Z,10.67
2018-07-23T23:01:26.808Z,12.07
2018-07-23T23:03:55.398Z,11.37
2018-07-23T23:06:23.963Z,11.83
2018-07-23T23:08:52.548Z,14.23
2018-07-23T23:11:21.095Z,11.77
2018-07-23T23:13:49.640Z,12.40
2018-07-23T23:16:18.143Z,11.03
2018-07-23T23:18:46.620Z,13.23
2018-07-23T23:21:15.151Z,12.60
2018-07-23T23:23:44.722Z,12.17
2018-07-23T23:26:13.357Z,13.43
2018-07-23T23:28:41.976Z,12.83
2018-07-23T23:31:10.608Z,13.10
2018-07-23T23:33:39.120Z,13.67
2018-07-23T23:36:07.771Z,12.27
2018-07-23T23:38:36.394Z,13.10
2018-07-23T23:41:05.071Z,13.97
2018-07-23T23:43:33.728Z,14.53
2018-07-23T23:46:02.445Z,15.17
2018-07-23T23:48:31.137Z,15.60
2018-07-23T23:50:59.834Z,14.57
2018-07-23T23:53:28.509Z,19.20
2018-07-23T23:55:57.244Z,18.87
2018-07-23T23:58:25.920Z,14.80
